الصفحة الرئيسية
METAR-TAF:

METAR-TAF

مطار :

Tocumen, بنما

دائرة عرض: 09-03N, خط طول: 079-22W, ارتفاع: 45 متر

مراقبة الطقس الحالي

تاريخ ووقت الإصدار 46 دقيقة قبل الساعة 19:00UTC
ريح 17 عقدة من الشمال/الشمال الغربي
درجة الحرارة 31°درجة مئوية
الرطوبة 55%
ضغط 1013 hPa
الرؤية 10 كم أو أكثر
غيوم متفرقة على ارتفاع 1800 قدم

METAR: MPTO 251900Z 33017KT 9999 SCT018 31/21 Q1013 NOSIG

زمن: 14:46 (19:46 UTC)

توقعات

تاريخ ووقت الإصدار 2ساعات و 46 دقيقة قبل الساعة 17:00UTC
التوقعات صالحة من25 الساعة 18 UTC إلى 26 الساعة 24 UTC
ريح 4 عقدة من الشمال الغربي
الرؤية 10 كم أو أكثر
غيوم متفرقة على ارتفاع 1800 قدم
مؤقت
من 25 الساعة 18 UTC إلى 25 الساعة 22 UTC
ريح 14 عقدة من الشمال
غيوم متفرقة على ارتفاع 1800 قدم, مزن ركامية عمودية.
غيوم متفرقة على ارتفاع 9000 قدم
مؤقت
من 26 الساعة 06 UTC إلى 26 الساعة 10 UTC
ريح 2 عقدةمن اتجاهات متغيرة

TAF: MPTO 251700Z 2518/2624 32004KT 9999 SCT018 TEMPO 2518/2522 36014KT SCT018TCU SCT090 TEMPO 2606/2610 VRB02KT

أرصاد الطقس والتوقعات من أكثر من 4000 مطار (تقارير الطقس للمطار METAR والتنبؤ بالطقس بالمطارTAF).

المحطات المتاحة هي النقط الصفراء والحمراء على الخريطة.

حرك المؤشر فوق النقطة لمعرفة اسم المحطة.

ثم انقر لمعرفة أرصاد وتوقعات الطقس.

لتغيير الخارطة: اضغط على الأزرار الخضراء مع رمز الصليب الأسود للتكبير. على الزر الأخضر مع شرطة للتصغير، أو على الأسهم الخضراء للخرائط المجاورة.


METAR-TAF: